createdAt,value
2023-01-29T00:00:20.607Z,101139.03
2023-01-29T00:02:47.149Z,101138.06
2023-01-29T00:05:26.875Z,101133.59
2023-01-29T00:07:54.658Z,101132.56
2023-01-29T00:10:21.243Z,101130.78
2023-01-29T00:12:47.796Z,101136.75
2023-01-29T00:15:14.343Z,101129.00
2023-01-29T00:17:40.840Z,101126.44
2023-01-29T00:20:07.628Z,101126.44
2023-01-29T00:22:34.132Z,101119.47
2023-01-29T00:25:00.630Z,101114.00
2023-01-29T00:27:27.143Z,101107.63
2023-01-29T00:30:12.051Z,101110.56
2023-01-29T00:32:40.307Z,101104.41
2023-01-29T00:35:08.134Z,101103.63
2023-01-29T00:37:35.045Z,101103.84
2023-01-29T00:40:01.538Z,101094.44
2023-01-29T00:42:46.476Z,101097.09
2023-01-29T00:45:13.496Z,101092.94
2023-01-29T00:47:40.077Z,101083.66
2023-01-29T00:50:10.659Z,101071.63
2023-01-29T00:52:37.373Z,101070.94
2023-01-29T00:55:05.534Z,101071.84
2023-01-29T00:57:34.244Z,101068.34
2023-01-29T01:00:01.465Z,101056.94
2023-01-29T01:02:46.941Z,101059.53
2023-01-29T01:05:18.378Z,101060.22
2023-01-29T01:07:52.904Z,101056.53
2023-01-29T01:10:24.516Z,101051.25
2023-01-29T01:13:02.747Z,101052.28
2023-01-29T01:15:35.710Z,101049.59
2023-01-29T01:18:03.388Z,101047.91
2023-01-29T01:20:31.605Z,101042.84
2023-01-29T01:22:58.147Z,101046.31
2023-01-29T01:25:25.818Z,101049.00
2023-01-29T01:27:57.196Z,101044.84
2023-01-29T01:30:25.120Z,101052.13
2023-01-29T01:32:51.915Z,101057.47
2023-01-29T01:35:18.873Z,101050.72
2023-01-29T01:37:45.402Z,101052.50
2023-01-29T01:40:18.575Z,101048.25
2023-01-29T01:42:58.335Z,101047.47
2023-01-29T01:45:34.401Z,101040.06
2023-01-29T01:48:16.552Z,101042.84
2023-01-29T01:50:46.800Z,101042.72
2023-01-29T01:53:19.115Z,101032.41
2023-01-29T01:55:53.051Z,101025.66
2023-01-29T01:58:27.216Z,101023.97
2023-01-29T02:00:54.989Z,101023.28
2023-01-29T02:03:41.741Z,101031.25
2023-01-29T02:06:28.592Z,101031.25
2023-01-29T02:09:21.708Z,101034.03
2023-01-29T02:11:48.294Z,101036.81
2023-01-29T02:14:14.850Z,101040.50
2023-01-29T02:16:41.349Z,101047.53
2023-01-29T02:19:26.096Z,101049.31
2023-01-29T02:22:22.890Z,101052.22
2023-01-29T02:25:09.821Z,101051.63
2023-01-29T02:27:48.778Z,101045.75
2023-01-29T02:30:24.191Z,101041.50
2023-01-29T02:33:00.250Z,101041.63
2023-01-29T02:35:32.295Z,101042.59
2023-01-29T02:38:18.095Z,101046.97
2023-01-29T02:41:03.599Z,101047.84
2023-01-29T02:43:36.400Z,101056.59
2023-01-29T02:46:26.140Z,101045.38
2023-01-29T02:49:19.058Z,101055.69
2023-01-29T02:52:05.283Z,101044.50
2023-01-29T02:54:53.192Z,101052.34
2023-01-29T02:57:22.911Z,101046.97
2023-01-29T02:59:55.514Z,101049.56
2023-01-29T03:02:44.027Z,101053.81
2023-01-29T03:05:17.665Z,101050.44
2023-01-29T03:07:53.305Z,101046.06
2023-01-29T03:10:24.906Z,101045.28
2023-01-29T03:12:56.684Z,101049.66
2023-01-29T03:15:28.580Z,101036.66
2023-01-29T03:18:09.731Z,101028.13
2023-01-29T03:20:48.243Z,101032.47
2023-01-29T03:23:27.179Z,101032.38
2023-01-29T03:26:15.872Z,101032.47
2023-01-29T03:29:04.797Z,101036.88
2023-01-29T03:31:51.306Z,101042.09
2023-01-29T03:34:24.797Z,101044.59
2023-01-29T03:36:55.862Z,101042.91
2023-01-29T03:39:24.535Z,101039.53
2023-01-29T03:41:58.996Z,101043.00
2023-01-29T03:45:00.650Z,101040.44
2023-01-29T03:47:44.041Z,101030.09
2023-01-29T03:50:25.137Z,101020.69
2023-01-29T03:53:00.656Z,101019.97
2023-01-29T03:55:56.334Z,101020.78
2023-01-29T03:58:32.781Z,101014.72
2023-01-29T04:01:21.804Z,101021.56
2023-01-29T04:03:56.480Z,101009.56
2023-01-29T04:06:29.886Z,101012.13
2023-01-29T04:09:03.760Z,101020.84
2023-01-29T04:11:31.744Z,101004.50
2023-01-29T04:13:58.552Z,101007.88
2023-01-29T04:16:29.488Z,101010.34
2023-01-29T04:18:56.900Z,101012.13
2023-01-29T04:21:25.048Z,101005.19
2023-01-29T04:23:51.651Z,101008.75
2023-01-29T04:26:27.303Z,101006.06
2023-01-29T04:29:18.548Z,101002.50
2023-01-29T04:32:00.458Z,100999.03
2023-01-29T04:34:46.228Z,100999.81
2023-01-29T04:37:23.310Z,100988.59
2023-01-29T04:39:59.591Z,100976.41
2023-01-29T04:42:33.459Z,100974.63
2023-01-29T04:45:13.476Z,100975.31
2023-01-29T04:48:02.447Z,100966.78
2023-01-29T04:50:37.315Z,100955.66
2023-01-29T04:53:37.784Z,100965.00
2023-01-29T04:56:08.390Z,100961.50
2023-01-29T04:58:49.174Z,100956.25
2023-01-29T05:01:19.329Z,100957.16
2023-01-29T05:03:51.601Z,100956.16
2023-01-29T05:06:20.600Z,100970.75
2023-01-29T05:08:49.103Z,100952.69
2023-01-29T05:11:16.897Z,100959.63
2023-01-29T05:13:43.579Z,100944.94
2023-01-29T05:16:17.098Z,100950.88
2023-01-29T05:18:43.811Z,100946.63
2023-01-29T05:21:10.638Z,100942.25
2023-01-29T05:23:37.167Z,100947.44
2023-01-29T05:26:04.556Z,100942.38
2023-01-29T05:28:31.105Z,100943.94
2023-01-29T05:30:57.781Z,100930.34
2023-01-29T05:33:27.114Z,100934.53
2023-01-29T05:35:54.271Z,100934.63
2023-01-29T05:38:21.974Z,100930.25
2023-01-29T05:40:49.005Z,100933.81
2023-01-29T05:43:16.924Z,100938.78
2023-01-29T05:45:43.817Z,100945.63
2023-01-29T05:48:10.369Z,100937.78
2023-01-29T05:50:37.002Z,100932.44
2023-01-29T05:53:03.650Z,100933.09
2023-01-29T05:55:30.142Z,100931.31
2023-01-29T05:57:56.674Z,100938.38
2023-01-29T06:00:23.457Z,100932.44
2023-01-29T06:02:50.056Z,100934.00
2023-01-29T06:05:16.829Z,100933.09
2023-01-29T06:07:45.545Z,100938.97
2023-01-29T06:10:18.369Z,100940.78
2023-01-29T06:12:45.379Z,100942.56
2023-01-29T06:15:13.110Z,100949.13
2023-01-29T06:17:39.645Z,100947.31
2023-01-29T06:20:06.765Z,100928.16
2023-01-29T06:22:33.859Z,100931.63
2023-01-29T06:25:00.521Z,100933.13
2023-01-29T06:27:27.353Z,100934.03
2023-01-29T06:29:53.849Z,100951.97
2023-01-29T06:32:20.395Z,100947.50
2023-01-29T06:34:49.469Z,100952.56
2023-01-29T06:37:16.330Z,100955.81
2023-01-29T06:39:42.832Z,100957.41
2023-01-29T06:42:10.081Z,100957.53
2023-01-29T06:44:36.757Z,100966.63
2023-01-29T06:47:03.371Z,100959.56
2023-01-29T06:49:29.966Z,100965.63
2023-01-29T06:51:56.442Z,100978.53
2023-01-29T06:54:23.024Z,100974.94
2023-01-29T06:56:49.499Z,100987.84
2023-01-29T06:59:16.113Z,100994.00
2023-01-29T07:01:44.464Z,100989.94
2023-01-29T07:04:11.500Z,100991.03
2023-01-29T07:06:38.148Z,100997.19
2023-01-29T07:09:05.044Z,100997.28
2023-01-29T07:11:32.108Z,100999.00
2023-01-29T07:13:58.689Z,100996.69
2023-01-29T07:16:26.459Z,101001.19
2023-01-29T07:18:53.137Z,100997.72
2023-01-29T07:21:19.790Z,100997.81
2023-01-29T07:23:46.532Z,101007.66
2023-01-29T07:26:13.157Z,101017.88
2023-01-29T07:28:40.324Z,101009.75
2023-01-29T07:31:07.778Z,100995.34
2023-01-29T07:33:34.563Z,100994.75
2023-01-29T07:36:01.162Z,101009.53
2023-01-29T07:38:27.719Z,100996.06
2023-01-29T07:40:54.774Z,100995.34
2023-01-29T07:43:21.335Z,100992.16
2023-01-29T07:45:47.853Z,100988.81
2023-01-29T07:48:14.394Z,100996.38
2023-01-29T07:50:41.472Z,101008.56
2023-01-29T07:53:16.473Z,101011.84
2023-01-29T07:55:46.048Z,101002.13
2023-01-29T07:58:12.956Z,100986.75
2023-01-29T08:00:39.748Z,100974.59
2023-01-29T08:03:10.972Z,100974.50
2023-01-29T08:05:37.505Z,100975.59
2023-01-29T08:08:07.502Z,100964.88
2023-01-29T08:10:38.660Z,100975.06
2023-01-29T08:13:06.387Z,100975.47
2023-01-29T08:15:33.488Z,100970.53
2023-01-29T08:18:02.366Z,100974.16
2023-01-29T08:20:29.023Z,100974.47
2023-01-29T08:23:00.498Z,100970.97
2023-01-29T08:25:27.623Z,100965.50
2023-01-29T08:27:54.483Z,100959.81
2023-01-29T08:30:21.001Z,100953.59
2023-01-29T08:32:47.567Z,100944.22
2023-01-29T08:35:14.095Z,100934.59
2023-01-29T08:37:40.611Z,100931.19
2023-01-29T08:40:09.507Z,100933.25
2023-01-29T08:42:36.157Z,100924.63
2023-01-29T08:45:02.667Z,100920.53
2023-01-29T08:47:29.728Z,100920.22
2023-01-29T08:49:56.239Z,100919.34
2023-01-29T08:52:22.768Z,100911.03
2023-01-29T08:54:49.309Z,100920.56
2023-01-29T08:57:15.850Z,100923.00
2023-01-29T08:59:42.324Z,100927.63
2023-01-29T09:02:11.527Z,100926.47
2023-01-29T09:04:38.040Z,100918.38
2023-01-29T09:07:04.550Z,100919.88
2023-01-29T09:09:31.050Z,100921.66
2023-01-29T09:11:57.587Z,100930.22
2023-01-29T09:14:24.070Z,100942.78
2023-01-29T09:16:50.602Z,100936.44
2023-01-29T09:19:17.130Z,100946.34
2023-01-29T09:21:43.626Z,100936.09
2023-01-29T09:24:10.904Z,100928.59
2023-01-29T09:26:39.700Z,100931.38
2023-01-29T09:29:06.739Z,100928.06
2023-01-29T09:31:33.642Z,100933.72
2023-01-29T09:34:00.253Z,100920.94
2023-01-29T09:36:26.804Z,100929.78
2023-01-29T09:38:53.312Z,100925.56
2023-01-29T09:41:37.789Z,100924.94
2023-01-29T09:44:14.064Z,100917.81
2023-01-29T09:46:49.048Z,100907.59
2023-01-29T09:49:32.407Z,100906.41
2023-01-29T09:52:05.220Z,100894.69
2023-01-29T09:54:52.853Z,100889.94
2023-01-29T09:57:24.957Z,100896.94
2023-01-29T09:59:51.625Z,100888.94
2023-01-29T10:02:50.625Z,100878.63
2023-01-29T10:05:50.055Z,100884.00
2023-01-29T10:08:34.532Z,100865.72
2023-01-29T10:11:35.005Z,100866.75
2023-01-29T10:14:17.388Z,100860.97
2023-01-29T10:17:01.188Z,100859.50
2023-01-29T10:19:36.916Z,100856.66
2023-01-29T10:22:34.108Z,100851.31
2023-01-29T10:25:02.709Z,100856.16
2023-01-29T10:27:39.269Z,100838.72
2023-01-29T10:30:21.827Z,100844.09
2023-01-29T10:32:50.109Z,100833.72
2023-01-29T10:35:53.758Z,100848.31
2023-01-29T10:38:43.335Z,100838.22
2023-01-29T10:41:27.034Z,100834.06
2023-01-29T10:44:13.034Z,100834.09
2023-01-29T10:47:21.401Z,100827.63
2023-01-29T10:50:17.160Z,100836.16
2023-01-29T10:53:24.951Z,100831.31
2023-01-29T10:56:26.814Z,100824.78
2023-01-29T10:59:27.365Z,100814.13
2023-01-29T11:01:59.462Z,100817.41
2023-01-29T11:04:28.610Z,100810.09
2023-01-29T11:06:55.078Z,100807.56
2023-01-29T11:09:37.817Z,100806.59
2023-01-29T11:12:19.491Z,100802.97
2023-01-29T11:14:53.177Z,100795.28
2023-01-29T11:17:22.893Z,100797.03
2023-01-29T11:19:51.799Z,100790.13
2023-01-29T11:22:23.820Z,100791.69
2023-01-29T11:25:15.435Z,100798.06
2023-01-29T11:27:54.604Z,100789.81
2023-01-29T11:30:39.433Z,100790.13
2023-01-29T11:33:21.865Z,100781.09
2023-01-29T11:35:48.656Z,100773.75
2023-01-29T11:38:28.023Z,100778.13
2023-01-29T11:41:06.458Z,100767.25
2023-01-29T11:43:33.335Z,100756.19
2023-01-29T11:46:13.494Z,100753.41
2023-01-29T11:48:43.704Z,100752.19
2023-01-29T11:51:20.041Z,100738.78
2023-01-29T11:53:52.520Z,100731.28
2023-01-29T11:56:27.264Z,100721.63
2023-01-29T11:58:55.911Z,100716.19
2023-01-29T12:01:39.026Z,100718.44
2023-01-29T12:04:19.613Z,100721.97
2023-01-29T12:06:50.535Z,100716.19
2023-01-29T12:09:20.434Z,100711.75
2023-01-29T12:11:47.092Z,100707.16
2023-01-29T12:14:34.358Z,100692.44
2023-01-29T12:17:20.039Z,100695.69
2023-01-29T12:20:02.327Z,100681.75
2023-01-29T12:23:09.000Z,100665.00
2023-01-29T12:25:52.193Z,100662.84
2023-01-29T12:28:39.446Z,100662.34
2023-01-29T12:31:27.919Z,100657.09
2023-01-29T12:33:57.530Z,100653.31
2023-01-29T12:36:38.444Z,100661.09
2023-01-29T12:39:05.307Z,100654.09
2023-01-29T12:41:47.987Z,100662.28
2023-01-29T12:44:24.066Z,100653.75
2023-01-29T12:46:54.850Z,100653.66
2023-01-29T12:49:35.361Z,100642.88
2023-01-29T12:52:07.375Z,100641.38
2023-01-29T12:54:50.088Z,100640.03
2023-01-29T12:57:26.242Z,100634.41
2023-01-29T12:59:58.671Z,100619.78
2023-01-29T13:02:44.075Z,100616.63
2023-01-29T13:05:38.651Z,100615.97
2023-01-29T13:08:14.494Z,100617.34
2023-01-29T13:10:45.690Z,100616.03
2023-01-29T13:13:34.061Z,100611.78
2023-01-29T13:16:03.939Z,100622.66
2023-01-29T13:18:40.190Z,100625.19
2023-01-29T13:21:12.102Z,100625.97
2023-01-29T13:23:45.185Z,100621.91
2023-01-29T13:26:13.807Z,100617.59
2023-01-29T13:28:44.243Z,100617.00
2023-01-29T13:31:32.710Z,100622.31
2023-01-29T13:34:25.692Z,100618.66
2023-01-29T13:37:09.291Z,100613.38
2023-01-29T13:39:46.109Z,100613.72
2023-01-29T13:42:25.146Z,100616.31
2023-01-29T13:44:55.655Z,100608.25
2023-01-29T13:47:31.560Z,100602.94
2023-01-29T13:50:02.925Z,100605.44
2023-01-29T13:52:43.320Z,100587.38
2023-01-29T13:55:26.245Z,100596.84
2023-01-29T13:57:56.133Z,100604.69
2023-01-29T14:00:24.368Z,100588.44
2023-01-29T14:03:11.381Z,100590.09
2023-01-29T14:05:57.393Z,100585.53
2023-01-29T14:08:37.908Z,100586.38
2023-01-29T14:11:13.339Z,100594.19
2023-01-29T14:13:42.035Z,100581.34
2023-01-29T14:16:14.382Z,100579.03
2023-01-29T14:18:57.946Z,100582.31
2023-01-29T14:21:32.036Z,100590.03
2023-01-29T14:24:20.991Z,100580.53
2023-01-29T14:26:49.590Z,100582.19
2023-01-29T14:29:34.708Z,100585.78
2023-01-29T14:32:07.888Z,100590.97
2023-01-29T14:34:44.742Z,100585.06
2023-01-29T14:37:17.128Z,100590.25
2023-01-29T14:39:57.689Z,100588.44
2023-01-29T14:42:33.030Z,100589.97
2023-01-29T14:45:22.480Z,100588.13
2023-01-29T14:47:49.055Z,100578.06
2023-01-29T14:50:33.585Z,100576.81
2023-01-29T14:53:26.213Z,100580.78
2023-01-29T14:55:59.770Z,100579.53
2023-01-29T14:58:29.756Z,100589.91
2023-01-29T15:00:58.921Z,100578.94
2023-01-29T15:03:45.693Z,100584.88
2023-01-29T15:06:20.113Z,100584.44
2023-01-29T15:09:00.046Z,100587.78
2023-01-29T15:11:48.080Z,100577.09
2023-01-29T15:15:15.994Z,100566.44
2023-01-29T15:17:59.788Z,100571.50
2023-01-29T15:20:32.275Z,100573.03
2023-01-29T15:23:00.427Z,100575.53
2023-01-29T15:25:48.740Z,100572.94
2023-01-29T15:28:15.555Z,100577.34
2023-01-29T15:30:43.812Z,100583.38
2023-01-29T15:33:14.181Z,100579.09
2023-01-29T15:35:42.334Z,100578.28
2023-01-29T15:38:18.885Z,100582.72
2023-01-29T15:40:57.041Z,100575.09
2023-01-29T15:43:36.812Z,100575.09
2023-01-29T15:46:10.674Z,100570.16
2023-01-29T15:48:43.550Z,100577.03
2023-01-29T15:51:19.738Z,100572.75
2023-01-29T15:53:50.010Z,100569.25
2023-01-29T15:56:26.115Z,100578.94
2023-01-29T15:58:52.693Z,100577.09
2023-01-29T16:01:19.933Z,100580.59
2023-01-29T16:03:49.745Z,100585.78
2023-01-29T16:06:17.037Z,100577.84
2023-01-29T16:08:47.884Z,100575.25
2023-01-29T16:11:16.353Z,100576.94
2023-01-29T16:13:44.334Z,100566.44
2023-01-29T16:16:45.873Z,100568.31
2023-01-29T16:19:23.932Z,100572.59
2023-01-29T16:21:59.275Z,100564.59
2023-01-29T16:24:26.888Z,100569.84
2023-01-29T16:27:02.493Z,100562.81
2023-01-29T16:29:33.944Z,100557.72
2023-01-29T16:32:02.788Z,100560.38
2023-01-29T16:34:34.943Z,100556.81
2023-01-29T16:37:04.955Z,100561.06
2023-01-29T16:39:43.868Z,100553.19
2023-01-29T16:42:10.836Z,100563.56
2023-01-29T16:44:40.163Z,100553.28
2023-01-29T16:47:13.037Z,100560.97
2023-01-29T16:49:39.635Z,100561.84
2023-01-29T16:52:25.200Z,100561.72
2023-01-29T16:54:52.815Z,100562.50
2023-01-29T16:57:29.738Z,100557.28
2023-01-29T17:00:01.372Z,100552.81
2023-01-29T17:02:33.452Z,100537.34
2023-01-29T17:05:07.805Z,100538.09
2023-01-29T17:07:36.668Z,100529.44
2023-01-29T17:10:05.721Z,100531.97
2023-01-29T17:12:33.727Z,100523.22
2023-01-29T17:15:04.112Z,100527.44
2023-01-29T17:17:36.287Z,100530.75
2023-01-29T17:20:14.307Z,100530.59
2023-01-29T17:22:40.917Z,100528.75
2023-01-29T17:25:07.819Z,100520.91
2023-01-29T17:27:34.380Z,100514.94
2023-01-29T17:30:01.078Z,100519.16
2023-01-29T17:32:44.057Z,100514.88
2023-01-29T17:35:14.494Z,100513.97
2023-01-29T17:37:41.378Z,100513.88
2023-01-29T17:40:29.628Z,100513.03
2023-01-29T17:42:56.093Z,100519.00
2023-01-29T17:45:22.636Z,100515.53
2023-01-29T17:47:49.182Z,100507.69
2023-01-29T17:50:27.081Z,100513.81
2023-01-29T17:52:53.982Z,100506.94
2023-01-29T17:55:20.965Z,100498.28
2023-01-29T17:57:47.617Z,100494.81
2023-01-29T18:00:20.193Z,100500.78
2023-01-29T18:02:47.047Z,100477.41
2023-01-29T18:05:14.864Z,100485.25
2023-01-29T18:07:44.335Z,100476.78
2023-01-29T18:10:18.621Z,100481.28
2023-01-29T18:12:45.744Z,100483.88
2023-01-29T18:15:12.732Z,100476.88
2023-01-29T18:17:40.420Z,100477.88
2023-01-29T18:20:38.495Z,100477.88
2023-01-29T18:23:06.651Z,100475.34
2023-01-29T18:25:34.552Z,100467.66
2023-01-29T18:28:01.390Z,100462.56
2023-01-29T18:30:28.272Z,100460.91
2023-01-29T18:32:54.813Z,100454.97
2023-01-29T18:35:21.864Z,100461.88
2023-01-29T18:37:48.592Z,100455.28
2023-01-29T18:40:17.362Z,100452.69
2023-01-29T18:42:45.568Z,100445.66
2023-01-29T18:45:13.519Z,100442.31
2023-01-29T18:47:40.748Z,100444.91
2023-01-29T18:50:08.683Z,100438.75
2023-01-29T18:52:35.282Z,100432.78
2023-01-29T18:55:01.992Z,100431.16
2023-01-29T18:58:27.382Z,100429.53
2023-01-29T19:00:15.875Z,100440.75
2023-01-29T19:02:43.196Z,100433.88
2023-01-29T19:05:09.919Z,100425.28
2023-01-29T19:07:37.153Z,100415.81
2023-01-29T19:10:07.066Z,100420.19
2023-01-29T19:12:34.567Z,100419.50
2023-01-29T19:15:01.467Z,100412.56
2023-01-29T19:17:28.275Z,100416.03
2023-01-29T19:19:56.550Z,100416.91
2023-01-29T19:22:23.230Z,100427.34
2023-01-29T19:24:49.954Z,100427.28
2023-01-29T19:27:16.483Z,100419.16
2023-01-29T19:29:42.991Z,100409.47
2023-01-29T19:32:10.002Z,100411.16
2023-01-29T19:34:37.062Z,100411.03
2023-01-29T19:37:04.025Z,100406.53
2023-01-29T19:39:33.934Z,100404.69
2023-01-29T19:42:01.475Z,100403.78
2023-01-29T19:44:28.370Z,100400.41
2023-01-29T19:46:54.874Z,100389.97
2023-01-29T19:49:21.495Z,100387.16
2023-01-29T19:51:48.047Z,100386.06
2023-01-29T19:54:14.631Z,100373.13
2023-01-29T19:56:41.318Z,100365.28
2023-01-29T19:59:08.056Z,100362.69
2023-01-29T20:01:34.768Z,100367.56
2023-01-29T20:04:01.494Z,100359.47
2023-01-29T20:06:31.145Z,100367.94
2023-01-29T20:08:58.204Z,100361.66
2023-01-29T20:11:25.500Z,100357.25
2023-01-29T20:13:52.980Z,100351.09
2023-01-29T20:16:19.901Z,100349.91
2023-01-29T20:18:46.673Z,100357.59
2023-01-29T20:21:15.672Z,100350.44
2023-01-29T20:23:44.245Z,100347.66
2023-01-29T20:26:14.525Z,100351.94
2023-01-29T20:28:42.002Z,100358.63
2023-01-29T20:31:09.537Z,100346.53
2023-01-29T20:33:39.184Z,100339.00
2023-01-29T20:36:08.365Z,100343.88
2023-01-29T20:38:34.904Z,100335.50
2023-01-29T20:41:10.637Z,100342.47
2023-01-29T20:43:37.235Z,100329.31
2023-01-29T20:46:04.888Z,100336.19
2023-01-29T20:48:32.189Z,100331.81
2023-01-29T20:51:16.781Z,100333.50
2023-01-29T20:53:45.974Z,100330.06
2023-01-29T20:56:13.376Z,100329.75
2023-01-29T20:58:41.125Z,100323.41
2023-01-29T21:01:10.240Z,100324.88
2023-01-29T21:03:38.127Z,100322.16
2023-01-29T21:06:05.322Z,100321.91
2023-01-29T21:08:31.864Z,100317.34
2023-01-29T21:10:58.551Z,100309.41
2023-01-29T21:13:25.131Z,100313.50
2023-01-29T21:15:51.717Z,100302.75
2023-01-29T21:18:18.303Z,100301.97
2023-01-29T21:20:44.938Z,100299.06
2023-01-29T21:23:11.627Z,100299.41
2023-01-29T21:25:38.838Z,100303.41
2023-01-29T21:28:06.166Z,100299.63
2023-01-29T21:30:33.053Z,100297.81
2023-01-29T21:32:59.987Z,100285.47
2023-01-29T21:35:26.625Z,100289.69
2023-01-29T21:37:53.235Z,100295.53
2023-01-29T21:40:21.311Z,100282.28
2023-01-29T21:43:07.171Z,100287.53
2023-01-29T21:45:35.463Z,100284.00
2023-01-29T21:48:02.415Z,100277.38
2023-01-29T21:50:29.022Z,100280.53
2023-01-29T21:52:55.653Z,100275.44
2023-01-29T21:55:22.263Z,100263.19
2023-01-29T21:57:48.805Z,100262.44
2023-01-29T22:00:16.209Z,100255.00
2023-01-29T22:02:43.154Z,100254.13
2023-01-29T22:05:18.915Z,100243.69
2023-01-29T22:07:47.201Z,100241.19
2023-01-29T22:10:14.399Z,100242.59
2023-01-29T22:12:41.312Z,100237.56
2023-01-29T22:15:08.629Z,100227.97
2023-01-29T22:17:35.437Z,100232.19
2023-01-29T22:20:02.319Z,100227.09
2023-01-29T22:22:28.887Z,100224.44
2023-01-29T22:24:56.520Z,100223.53
2023-01-29T22:27:23.018Z,100223.28
2023-01-29T22:29:49.527Z,100214.44
2023-01-29T22:32:16.491Z,100203.22
2023-01-29T22:34:43.026Z,100197.34
2023-01-29T22:37:09.672Z,100192.09
2023-01-29T22:39:36.171Z,100189.50
2023-01-29T22:42:02.693Z,100176.81
2023-01-29T22:44:29.212Z,100168.56
2023-01-29T22:46:55.738Z,100168.56
2023-01-29T22:49:23.164Z,100153.13
2023-01-29T22:52:09.633Z,100155.06
2023-01-29T22:54:43.499Z,100153.59
2023-01-29T22:57:12.140Z,100145.34
2023-01-29T22:59:39.197Z,100143.03
2023-01-29T23:02:07.401Z,100139.84
2023-01-29T23:04:34.021Z,100128.59
2023-01-29T23:07:00.517Z,100116.06
2023-01-29T23:09:30.056Z,100110.38
2023-01-29T23:11:56.576Z,100106.97
2023-01-29T23:14:23.072Z,100111.47
2023-01-29T23:16:49.550Z,100101.88
2023-01-29T23:19:16.045Z,100090.72
2023-01-29T23:21:42.620Z,100091.00
2023-01-29T23:24:09.709Z,100092.16
2023-01-29T23:26:54.549Z,100080.19
2023-01-29T23:29:21.643Z,100075.16
2023-01-29T23:31:48.439Z,100071.91
2023-01-29T23:34:15.597Z,100069.03
2023-01-29T23:36:42.668Z,100072.69
2023-01-29T23:39:09.595Z,100063.31
2023-01-29T23:41:36.285Z,100053.97
2023-01-29T23:44:03.021Z,100048.81
2023-01-29T23:46:29.664Z,100034.34
2023-01-29T23:48:56.249Z,100031.88
2023-01-29T23:51:22.783Z,100034.25
2023-01-29T23:53:49.300Z,100026.66
2023-01-29T23:56:15.869Z,100005.69
2023-01-29T23:58:42.399Z,100009.03
